Relevés horaires Matro (Suisse)


Relevés horaires à Matro - Jeudi 08 Août 2019
Heure UTC1 Température [°C] Vent [km/h] Hum. [%] Pres.4 [hPa] Visi. [Km] Nébu. [octa] Préc.5 [mm] Cond.
2m. Res. Ros. Dir.2 Vit. Moy. Raf.3
23:00 12.3 11.5 7.9 SE 9.3 -- 11.1 74 850(0.6/3h) -- -- -- --
22:00 12.6 12.6 7.8 ENE 3.7 -- 20.4 73 850(0.9/3h) -- -- -- --
21:00 12.3 11 8.6 N 13.0 -- 20.4 78 850(1.0/3h) -- -- -- --
20:00 12.8 12.8 8.1 NNE 3.7 -- 11.1 73 850(1.0/3h) -- -- -- --
19:00 13.0 13 8.2 S 5.6 -- 9.3 73 850(0.7/3h) -- -- -- --
18:00 13.4 13.4 7.6 SSE 3.7 -- 24.1 68 850(0.4/3h) -- -- -- --
17:00 13.7 13.7 8.0 S 5.6 -- 16.7 68 850(0.4/3h) -- -- -- --
16:00 13.9 12.9 9.1 S 13.0 -- 24.1 73 850(0.1/3h) -- -- -- --
15:00 14.6 14 9.0 S 11.1 -- 24.1 69 850(0.3/3h) -- -- -- --
14:00 14.8 14.2 8.7 S 11.1 -- 24.1 67 850(0.3/3h) -- -- -- --
13:00 14.1 13.4 7.5 SSO 11.1 -- 24.1 64 850(0.4/3h) -- -- -- --
12:00 13.7 12.7 7.6 S 13.0 -- 20.4 67 850(0.5/3h) -- -- -- --
11:00 13.6 13.6 7.4 SSE 5.6 -- 16.7 66 850(0.5/3h) -- -- -- --
10:00 12.9 12.9 7.7 SSE 3.7 -- 11.1 71 850(0.8/3h) -- -- -- --
10:00 12.9 12.9 7.7 SSE 3.7 -- 11.1 71 850(0.8/3h) -- -- -- --
09:00 12.8 12.8 5.1 ESE 1.9 -- 9.3 59 850(0.7/3h) -- -- -- --
08:00 11.2 11 6.6 SSO 5.6 -- 9.3 73 850(0.8/3h) -- -- -- --
08:00 11.2 11 6.6 SSO 5.6 -- 9.3 73 850(0.8/3h) -- -- -- --
07:00 10.4 10.4 5.5 SO 1.9 -- 9.3 72 850(0.6/3h) -- -- -- --
06:00 10.9 10.6 4.7 NO 5.6 -- 31.5 66 850(0.3/3h) -- -- -- --
06:00 10.9 10.6 4.7 NO 5.6 -- 31.5 66 850(0.3/3h) -- -- -- --
05:00 10.1 7.8 4.6 NO 16.7 -- 22.2 69 850(0.0/3h) -- -- -- --
04:00 9.7 7.6 5.4 NO 14.8 -- 20.4 75 850(0.1/3h) -- -- -- --
03:00 9.6 7.2 5.8 N 16.7 -- 31.5 77 850(-0.1/3h) -- -- -- --

1 Coordinated Universal Time. Actuellement il est 00:00 locale et 22:00 UTC.

2 Le vent souffle depuis la direction indiquée vers la direction oposée.

3 Les rafales max. sont disponible 40 min après l'heure du relevé.

4 Pour les stations d'altitude (plus de 600m) le géopotentiel du niveau le plus proche de la pression obligatoire est indiqué.

5 Les stations disposant d'un diffuseur peuvent indiquer "trace". Cela signifie que des précipitations ont touchés le sol mais que la quantité est inférieure à 0.1 mm.

Copyright

Les données affichées sur cette page sont la propriété exclusive de Météo Suisse.

Récapitulatif de la journée
Température [°C] Vent [km/h] Ensoleillement4 [h] Precipitations totale5 [mm] Pression [Hpa]
Min1 Max.2 Moy.3 Max. Min Max.
9.2 15.5 0 31.5 22 h 24 min 0 850.0 850.0

1 Température minimale relevée entre 18:00 UTC la veille et 18:00 UTC le jour donné.

2 Température maximale relevée entre 06:00 UTC le jour donné et 06:00 UTC le lendemain.

3 Vent moyen de la journée basé sur les relevés horaires.

4 Ensoleillement en heures relevé entre 06:00 UTC la veille et 06:00 UTC le jour donné.

5 Précipitations totales tombées entre 06:00 UTC la jour donné et 06:00 UTC le lendemain.

Graphiques horaires